Time;durP1;ratioP1;P1;durP2;ratioP2;P2;SDS_P1;SDS_P2;PMS_P1;PMS_P2;Temp;Humidity;BMP_temperature;BMP_pressure;BME280_temperature;BME280_humidity;BME280_pressure;Samples;Min_cycle;Max_cycle;Signal;HPM_P1;HPM_P2
2022/08/03 00:02:35;;;;;;;5.63;4.10;;;22.40;96.50;;;;;;7002489;28;20434;-86
2022/08/03 00:05:57;;;;;;;6.82;3.97;;;22.50;96.40;;;;;;6998968;28;20439;-84
2022/08/03 00:09:22;;;;;;;6.93;3.65;;;22.50;96.50;;;;;;6999944;28;20442;-84
2022/08/03 00:12:44;;;;;;;5.65;4.00;;;22.50;96.50;;;;;;6999346;28;20439;-85
2022/08/03 00:16:06;;;;;;;8.02;4.13;;;22.50;96.30;;;;;;7001092;28;20435;-83
2022/08/03 00:19:28;;;;;;;7.43;4.30;;;22.30;96.50;;;;;;6999256;28;20517;-85
2022/08/03 00:22:51;;;;;;;6.68;4.18;;;22.30;96.90;;;;;;7001415;28;20439;-85
2022/08/03 00:26:14;;;;;;;6.10;4.10;;;22.30;96.80;;;;;;6997818;28;20436;-85
2022/08/03 00:29:36;;;;;;;6.75;3.95;;;22.30;96.80;;;;;;7003167;28;20937;-85
2022/08/03 00:32:59;;;;;;;6.40;4.13;;;22.20;97.00;;;;;;7002130;28;20428;-86
2022/08/03 00:36:21;;;;;;;5.95;4.00;;;22.20;97.20;;;;;;7000336;28;20431;-85
2022/08/03 00:39:45;;;;;;;7.17;4.20;;;22.10;97.40;;;;;;6999462;28;20428;-85
2022/08/03 00:43:09;;;;;;;6.63;4.22;;;22.00;97.60;;;;;;6998583;28;20901;-85
2022/08/03 00:46:31;;;;;;;6.93;4.15;;;22.00;97.40;;;;;;6999468;28;20493;-86
2022/08/03 00:49:53;;;;;;;6.18;4.25;;;21.90;97.50;;;;;;6981257;28;20793;-84
2022/08/03 00:53:15;;;;;;;6.97;4.50;;;21.90;97.70;;;;;;6997377;28;20428;-84
2022/08/03 00:56:38;;;;;;;6.30;4.28;;;21.90;97.60;;;;;;6998356;28;20467;-85
2022/08/03 01:00:02;;;;;;;5.70;4.00;;;21.90;97.70;;;;;;7005071;28;20435;-84
2022/08/03 01:03:24;;;;;;;6.55;4.10;;;21.80;97.90;;;;;;7005443;28;20442;-88
2022/08/03 01:06:52;;;;;;;7.55;4.10;;;21.80;98.00;;;;;;7001529;28;20435;-87
2022/08/03 01:10:25;;;;;;;6.20;4.10;;;21.80;98.00;;;;;;6998567;28;20436;-86
2022/08/03 01:13:59;;;;;;;6.50;4.10;;;21.80;98.00;;;;;;7002907;28;20432;-87
2022/08/03 01:17:32;;;;;;;6.20;4.00;;;21.80;98.00;;;;;;6996588;28;20431;-86
2022/08/03 01:20:57;;;;;;;7.77;4.00;;;21.80;98.00;;;;;;6994590;28;20427;-87
2022/08/03 01:24:35;;;;;;;6.18;3.72;;;21.80;98.10;;;;;;6998333;28;20431;-86
2022/08/03 01:28:15;;;;;;;6.18;3.92;;;21.80;98.20;;;;;;6998302;28;20992;-86
2022/08/03 01:31:43;;;;;;;7.53;4.28;;;21.80;98.10;;;;;;6989824;28;20474;-88
2022/08/03 01:35:11;;;;;;;7.35;4.03;;;21.80;98.20;;;;;;6998350;28;20445;-86
2022/08/03 01:38:36;;;;;;;8.20;3.90;;;21.70;98.30;;;;;;6992634;28;20432;-86
2022/08/03 01:42:04;;;;;;;6.82;3.90;;;21.70;98.60;;;;;;6994008;28;20477;-87
2022/08/03 01:45:28;;;;;;;6.68;3.85;;;21.60;98.40;;;;;;6997607;28;20484;-88
2022/08/03 01:48:54;;;;;;;6.47;3.78;;;21.50;98.60;;;;;;7005873;28;20503;-86
2022/08/03 01:52:19;;;;;;;5.50;3.88;;;21.50;98.50;;;;;;7026631;28;20427;-87
2022/08/03 01:55:43;;;;;;;6.33;3.50;;;21.60;98.60;;;;;;7026302;28;20435;-87
2022/08/03 01:59:08;;;;;;;6.35;4.00;;;21.60;98.40;;;;;;7024005;28;20427;-86
2022/08/03 02:02:32;;;;;;;6.18;4.00;;;21.50;98.20;;;;;;7015550;28;20439;-87
2022/08/03 02:05:58;;;;;;;7.43;3.90;;;21.40;98.50;;;;;;7002698;28;20438;-87
2022/08/03 02:09:22;;;;;;;5.80;3.95;;;21.30;98.60;;;;;;7012873;28;20431;-86
2022/08/03 02:12:46;;;;;;;6.05;3.80;;;21.30;98.60;;;;;;7023599;28;20840;-87
2022/08/03 02:16:08;;;;;;;6.55;3.80;;;21.40;98.50;;;;;;7023089;28;20428;-85
2022/08/03 02:19:32;;;;;;;6.40;4.03;;;21.40;98.40;;;;;;6990219;28;20920;-87
2022/08/03 02:22:56;;;;;;;5.80;3.72;;;21.40;98.40;;;;;;6997370;28;20424;-86
2022/08/03 02:26:22;;;;;;;6.70;4.00;;;21.30;98.40;;;;;;6997414;28;20474;-86
2022/08/03 02:29:49;;;;;;;6.88;3.50;;;21.20;98.50;;;;;;6990344;28;20442;-86
2022/08/03 02:33:18;;;;;;;6.33;3.87;;;21.20;98.60;;;;;;7000259;28;20913;-87
2022/08/03 02:36:43;;;;;;;5.30;3.80;;;21.00;98.60;;;;;;6999913;28;20432;-87
2022/08/03 02:40:10;;;;;;;7.32;3.90;;;20.90;98.70;;;;;;6989333;28;20781;-88
2022/08/03 02:43:35;;;;;;;7.88;4.20;;;20.80;98.90;;;;;;6997193;28;20932;-89
2022/08/03 02:47:02;;;;;;;6.20;3.90;;;20.70;99.10;;;;;;6996567;28;20432;-88
2022/08/03 02:50:26;;;;;;;5.95;4.20;;;20.60;99.10;;;;;;6997651;28;20868;-87
2022/08/03 02:53:49;;;;;;;7.37;4.97;;;20.40;99.60;;;;;;6989018;28;20472;-87
2022/08/03 02:57:15;;;;;;;8.23;4.90;;;20.40;99.90;;;;;;6999094;28;20501;-87
2022/08/03 03:00:39;;;;;;;7.50;4.97;;;20.40;99.90;;;;;;7003823;28;20789;-89
2022/08/03 03:04:02;;;;;;;7.75;4.80;;;20.40;99.90;;;;;;6988018;28;20430;-86
2022/08/03 03:07:24;;;;;;;7.10;4.28;;;20.40;99.90;;;;;;7011817;28;20476;-85
2022/08/03 03:10:47;;;;;;;5.97;4.07;;;20.50;99.90;;;;;;7013011;28;20444;-84
2022/08/03 03:14:13;;;;;;;6.80;4.20;;;20.60;99.90;;;;;;7014259;28;20427;-85
2022/08/03 03:17:37;;;;;;;6.68;4.20;;;20.60;99.90;;;;;;7012200;28;20462;-86
2022/08/03 03:21:01;;;;;;;7.57;4.25;;;20.60;99.90;;;;;;7012218;28;20458;-86
2022/08/03 03:24:23;;;;;;;6.75;4.13;;;20.60;99.90;;;;;;6991173;28;21058;-83
2022/08/03 03:27:47;;;;;;;6.40;4.00;;;20.70;99.90;;;;;;6992887;28;20428;-84
2022/08/03 03:31:11;;;;;;;8.55;3.80;;;20.70;99.90;;;;;;6999454;28;20453;-81
2022/08/03 03:34:33;;;;;;;5.75;3.92;;;20.70;99.90;;;;;;7001914;28;20454;-81
2022/08/03 03:37:56;;;;;;;5.22;3.78;;;20.70;99.90;;;;;;6993841;28;20474;-83
2022/08/03 03:41:18;;;;;;;7.78;3.85;;;20.70;99.90;;;;;;6994561;28;20466;-87
2022/08/03 03:44:40;;;;;;;5.43;3.70;;;20.70;99.90;;;;;;6995486;28;20975;-87
2022/08/03 03:48:05;;;;;;;5.75;3.70;;;20.70;99.90;;;;;;6996219;28;20781;-87
2022/08/03 03:51:27;;;;;;;5.43;3.70;;;20.70;99.80;;;;;;6996136;28;20443;-87
2022/08/03 03:54:49;;;;;;;7.13;4.13;;;20.70;99.80;;;;;;6996416;28;20431;-85
2022/08/03 03:58:11;;;;;;;6.28;4.13;;;20.70;99.70;;;;;;6996388;28;20435;-87
2022/08/03 04:01:33;;;;;;;5.78;3.65;;;20.60;99.80;;;;;;7002163;28;20454;-86
2022/08/03 04:12:17;;;;;;;6.90;3.83;;;20.30;99.90;;;;;;7001572;28;20439;-86
2022/08/03 04:15:41;;;;;;;4.82;3.55;;;20.30;99.90;;;;;;7001876;28;20430;-86
2022/08/03 04:19:09;;;;;;;6.35;3.90;;;20.30;99.90;;;;;;7001030;28;20419;-86
2022/08/03 04:22:34;;;;;;;6.30;4.00;;;20.30;99.90;;;;;;7001131;28;20750;-86
2022/08/03 04:25:57;;;;;;;5.05;3.55;;;20.20;99.90;;;;;;7000375;28;20433;-85
2022/08/03 04:29:22;;;;;;;6.68;4.03;;;20.20;99.90;;;;;;7000666;28;20423;-86
2022/08/03 04:32:50;;;;;;;7.68;3.85;;;20.10;99.90;;;;;;7000930;28;20475;-86
2022/08/03 04:36:17;;;;;;;6.13;3.88;;;20.00;99.90;;;;;;6983656;28;20751;-85
2022/08/03 04:39:42;;;;;;;6.00;3.60;;;20.10;99.90;;;;;;7000675;28;20427;-86
2022/08/03 04:43:06;;;;;;;6.37;3.70;;;20.20;99.90;;;;;;7000724;28;20420;-86
2022/08/03 04:46:35;;;;;;;6.33;3.83;;;20.20;99.90;;;;;;6999795;28;20508;-86
2022/08/03 04:49:57;;;;;;;6.20;3.65;;;20.20;99.90;;;;;;6999483;28;20438;-88
2022/08/03 04:53:19;;;;;;;5.53;3.83;;;20.20;99.90;;;;;;6999626;28;20478;-87
2022/08/03 04:56:44;;;;;;;5.80;4.18;;;20.10;99.90;;;;;;6999911;28;20423;-86
2022/08/03 05:00:08;;;;;;;5.57;3.92;;;20.00;99.90;;;;;;6999936;28;20439;-87
2022/08/03 05:03:31;;;;;;;6.25;4.28;;;20.00;99.90;;;;;;6999006;28;20431;-87
2022/08/03 05:06:53;;;;;;;8.40;5.18;;;20.00;99.90;;;;;;7000034;28;20944;-87
2022/08/03 05:10:15;;;;;;;6.70;4.70;;;20.00;99.90;;;;;;6999761;28;20446;-86
2022/08/03 05:13:39;;;;;;;7.32;5.13;;;20.10;99.90;;;;;;7003559;28;20531;-87
2022/08/03 05:17:01;;;;;;;6.32;4.70;;;20.20;99.90;;;;;;7000058;28;20430;-86
2022/08/03 05:20:23;;;;;;;6.85;4.80;;;20.20;99.90;;;;;;6999848;28;20486;-86
2022/08/03 05:23:45;;;;;;;6.63;4.70;;;20.20;99.90;;;;;;6999753;28;20454;-87
2022/08/03 05:27:07;;;;;;;6.65;4.90;;;20.20;99.90;;;;;;6999186;28;20431;-87
2022/08/03 05:30:31;;;;;;;7.78;4.90;;;20.20;99.90;;;;;;6980967;28;20492;-86
2022/08/03 05:33:53;;;;;;;7.65;4.95;;;20.20;99.90;;;;;;6998489;28;20428;-86
2022/08/03 05:37:15;;;;;;;6.97;4.70;;;20.30;99.90;;;;;;6998725;28;20447;-88
2022/08/03 05:40:37;;;;;;;6.57;4.70;;;20.30;99.90;;;;;;7000237;28;20432;-86
2022/08/03 05:44:00;;;;;;;6.37;4.80;;;20.30;99.90;;;;;;6999877;28;20424;-87
2022/08/03 05:47:23;;;;;;;7.57;4.60;;;20.30;99.90;;;;;;6999813;28;20435;-88
2022/08/03 05:50:46;;;;;;;6.78;4.80;;;20.40;99.90;;;;;;6981909;28;20812;-87
2022/08/03 05:54:08;;;;;;;7.10;4.70;;;20.50;99.90;;;;;;7005672;28;20518;-87
2022/08/03 05:57:30;;;;;;;6.35;4.50;;;20.50;99.90;;;;;;6985851;28;20442;-87
2022/08/03 06:00:52;;;;;;;6.40;4.80;;;20.60;99.90;;;;;;7001964;28;20419;-85
2022/08/03 06:04:16;;;;;;;7.30;4.70;;;20.60;99.90;;;;;;7000168;28;20436;-87
2022/08/03 06:07:38;;;;;;;7.28;4.95;;;20.60;99.90;;;;;;6982495;28;20793;-84
2022/08/03 06:11:00;;;;;;;7.50;4.70;;;20.70;99.90;;;;;;6981863;28;20447;-87
2022/08/03 06:14:22;;;;;;;6.63;4.78;;;20.70;99.90;;;;;;6999983;28;20778;-84
2022/08/03 06:17:46;;;;;;;9.00;5.00;;;20.80;99.90;;;;;;7003355;28;20420;-86
2022/08/03 06:21:10;;;;;;;8.88;5.00;;;20.80;99.90;;;;;;7000370;28;20480;-86
2022/08/03 06:24:32;;;;;;;6.80;4.43;;;20.90;99.90;;;;;;7006288;28;20430;-79
2022/08/03 06:27:54;;;;;;;6.70;4.30;;;20.90;99.90;;;;;;7001980;28;20423;-78
2022/08/03 06:31:17;;;;;;;6.05;4.40;;;21.00;99.90;;;;;;6999705;28;20428;-78
2022/08/03 06:34:39;;;;;;;6.38;4.10;;;21.10;99.90;;;;;;7000774;28;20430;-81
2022/08/03 06:38:02;;;;;;;6.25;4.20;;;21.00;99.90;;;;;;7001798;28;20431;-78
2022/08/03 06:41:24;;;;;;;6.35;4.00;;;20.90;99.90;;;;;;7001079;28;20524;-81
2022/08/03 06:44:50;;;;;;;6.03;4.13;;;20.80;99.90;;;;;;6998153;28;20416;-78
2022/08/03 06:48:13;;;;;;;6.35;3.75;;;21.00;99.90;;;;;;6992598;28;20787;-79
2022/08/03 06:51:35;;;;;;;7.67;3.83;;;21.10;99.90;;;;;;6976178;28;20479;-81
2022/08/03 06:55:01;;;;;;;5.65;3.75;;;21.20;99.90;;;;;;6974301;28;20429;-83
2022/08/03 06:58:23;;;;;;;5.47;3.57;;;21.30;99.90;;;;;;6970158;28;20429;-77
2022/08/03 07:01:45;;;;;;;5.35;3.67;;;21.40;99.90;;;;;;6988195;28;20431;-77
2022/08/03 07:05:09;;;;;;;5.43;3.40;;;21.60;99.90;;;;;;6995600;28;20454;-77
2022/08/03 07:08:31;;;;;;;6.53;3.45;;;21.70;99.90;;;;;;6994122;28;20435;-77
2022/08/03 07:11:55;;;;;;;8.82;3.72;;;21.80;99.90;;;;;;6995408;28;20605;-78
2022/08/03 07:15:17;;;;;;;5.75;4.00;;;22.00;99.90;;;;;;6994690;28;21005;-77
2022/08/03 07:18:40;;;;;;;5.90;3.58;;;22.00;99.90;;;;;;6992737;28;20427;-78
2022/08/03 07:22:03;;;;;;;5.67;3.63;;;22.20;99.90;;;;;;6994793;28;20939;-76
2022/08/03 07:25:25;;;;;;;5.70;3.50;;;22.20;99.60;;;;;;6995495;28;20463;-77
2022/08/03 07:28:48;;;;;;;5.90;3.50;;;22.30;99.70;;;;;;6996176;28;20435;-76
2022/08/03 07:32:10;;;;;;;6.03;3.55;;;22.40;99.60;;;;;;6999138;28;20439;-76
2022/08/03 07:35:32;;;;;;;5.85;3.33;;;22.50;99.10;;;;;;7002464;28;20458;-77
2022/08/03 07:38:56;;;;;;;5.13;3.50;;;22.60;99.20;;;;;;7000677;28;20908;-77
2022/08/03 07:42:19;;;;;;;4.93;3.20;;;22.70;99.10;;;;;;6981378;28;20484;-76
2022/08/03 07:45:42;;;;;;;5.90;3.20;;;22.80;98.90;;;;;;6997233;28;20446;-77
2022/08/03 07:49:05;;;;;;;5.00;3.40;;;22.90;98.40;;;;;;6998082;28;20503;-76
2022/08/03 07:56:06;;;;;;;5.07;3.22;;;23.00;98.70;;;;;;6997909;28;20447;-76
2022/08/03 07:59:28;;;;;;;5.70;3.08;;;23.10;98.00;;;;;;6996637;28;20482;-75
2022/08/03 08:02:52;;;;;;;5.63;3.30;;;23.20;97.40;;;;;;6997243;28;20774;-74
2022/08/03 08:06:14;;;;;;;7.90;5.47;;;23.20;97.50;;;;;;6996499;28;20427;-76
2022/08/03 08:09:36;;;;;;;4.50;3.20;;;23.20;97.50;;;;;;6996895;28;20901;-76
2022/08/03 08:12:58;;;;;;;6.00;3.60;;;23.40;97.40;;;;;;6996811;28;20901;-77
2022/08/03 08:16:20;;;;;;;7.55;3.63;;;23.50;97.90;;;;;;6996170;28;20446;-77
2022/08/03 08:19:43;;;;;;;8.53;3.53;;;23.50;97.70;;;;;;6996340;28;20912;-75
2022/08/03 08:23:07;;;;;;;5.55;3.30;;;23.60;97.30;;;;;;6996276;28;20934;-78
2022/08/03 08:26:29;;;;;;;6.03;3.13;;;23.70;97.30;;;;;;6995644;28;20940;-77
2022/08/03 08:29:51;;;;;;;7.18;3.00;;;23.70;96.90;;;;;;6995603;28;20430;-74
2022/08/03 08:33:14;;;;;;;5.57;3.00;;;23.80;96.20;;;;;;6995720;28;20478;-76
2022/08/03 08:36:38;;;;;;;4.55;3.10;;;23.80;96.00;;;;;;6996040;28;20435;-76
2022/08/03 08:40:00;;;;;;;7.23;3.10;;;23.90;96.20;;;;;;6996362;28;20513;-76
2022/08/03 08:43:22;;;;;;;4.97;3.10;;;24.00;96.10;;;;;;6996749;28;20528;-77
2022/08/03 08:46:44;;;;;;;4.40;2.90;;;24.10;96.10;;;;;;6994789;28;20530;-77
2022/08/03 08:50:09;;;;;;;5.15;2.80;;;24.20;95.30;;;;;;6995608;28;20916;-76
2022/08/03 08:53:37;;;;;;;4.93;3.28;;;24.20;95.00;;;;;;6995050;28;20439;-76
2022/08/03 08:57:02;;;;;;;4.55;2.72;;;24.30;95.10;;;;;;6995357;28;20435;-77
2022/08/03 09:00:25;;;;;;;5.23;2.90;;;24.40;94.60;;;;;;6995331;28;20466;-76
2022/08/03 09:03:47;;;;;;;5.95;2.72;;;24.50;94.70;;;;;;6995393;28;20427;-77
2022/08/03 09:07:09;;;;;;;4.55;2.60;;;24.60;94.70;;;;;;6995325;28;20477;-76
2022/08/03 09:10:33;;;;;;;5.65;2.53;;;24.70;94.30;;;;;;6995791;28;20427;-76
2022/08/03 09:13:55;;;;;;;4.90;2.10;;;24.70;93.80;;;;;;6994908;28;20428;-78
2022/08/03 09:17:17;;;;;;;4.50;2.30;;;24.80;92.80;;;;;;6994713;28;20435;-78
2022/08/03 09:20:39;;;;;;;4.32;2.10;;;24.80;92.50;;;;;;6994744;28;20428;-76
2022/08/03 09:24:04;;;;;;;4.10;2.20;;;24.90;92.20;;;;;;6994920;28;20427;-76
2022/08/03 09:27:27;;;;;;;3.83;2.20;;;25.00;92.20;;;;;;6994498;28;20467;-77
2022/08/03 09:30:59;;;;;;;5.03;2.10;;;25.10;92.30;;;;;;6993692;28;20438;-76
2022/08/03 09:34:27;;;;;;;4.00;2.30;;;25.10;91.80;;;;;;6994612;28;20816;-76
2022/08/03 09:38:12;;;;;;;4.50;2.28;;;25.30;91.70;;;;;;6994353;28;20431;-77
2022/08/03 09:41:35;;;;;;;4.80;2.20;;;25.30;91.50;;;;;;6993930;28;20423;-78
2022/08/03 09:44:58;;;;;;;4.10;2.30;;;25.40;91.20;;;;;;6992909;28;20469;-77
2022/08/03 09:48:22;;;;;;;4.32;2.10;;;25.50;91.30;;;;;;6993848;28;20791;-79
2022/08/03 09:51:45;;;;;;;3.30;1.90;;;25.50;90.90;;;;;;6993486;28;20475;-77
2022/08/03 09:55:10;;;;;;;6.22;2.08;;;25.60;90.40;;;;;;6993290;28;20448;-77
2022/08/03 09:58:32;;;;;;;4.90;2.05;;;25.70;90.50;;;;;;6992869;28;21027;-77
2022/08/03 10:01:56;;;;;;;3.78;2.33;;;25.80;90.70;;;;;;6993181;28;20427;-78
2022/08/03 10:05:32;;;;;;;4.85;2.40;;;25.80;90.50;;;;;;6994345;28;20435;-79
2022/08/03 10:09:07;;;;;;;5.55;2.08;;;25.90;90.40;;;;;;6993846;28;20431;-80
2022/08/03 10:12:29;;;;;;;3.80;2.25;;;25.90;90.10;;;;;;6993542;28;20435;-77
2022/08/03 10:15:51;;;;;;;4.90;1.95;;;25.90;90.10;;;;;;6993170;28;20423;-79
2022/08/03 10:19:16;;;;;;;4.60;2.10;;;26.00;89.60;;;;;;6994147;28;20935;-79
2022/08/03 10:22:42;;;;;;;3.75;1.80;;;26.10;89.20;;;;;;6998532;28;20423;-78
2022/08/03 10:26:07;;;;;;;4.50;1.88;;;26.20;87.40;;;;;;6995185;28;20424;-78
2022/08/03 10:29:32;;;;;;;4.22;1.98;;;26.40;88.20;;;;;;6994411;28;20435;-77
2022/08/03 10:33:03;;;;;;;3.75;1.60;;;26.30;87.00;;;;;;6994323;28;20431;-75
2022/08/03 10:36:30;;;;;;;3.63;1.70;;;26.60;87.70;;;;;;6996364;28;20917;-76
2022/08/03 10:39:53;;;;;;;5.40;2.00;;;26.70;86.30;;;;;;6994420;28;20556;-76
2022/08/03 10:43:21;;;;;;;5.07;1.80;;;26.80;84.40;;;;;;6991359;28;20496;-77
2022/08/03 10:46:45;;;;;;;4.93;1.90;;;26.90;84.30;;;;;;7000545;28;20423;-79
2022/08/03 10:50:09;;;;;;;3.05;1.70;;;26.90;84.80;;;;;;6992420;28;20438;-78
2022/08/03 10:53:37;;;;;;;4.35;1.80;;;26.90;84.90;;;;;;6992679;28;20439;-78
2022/08/03 11:00:51;;;;;;;4.80;2.90;;;27.20;84.20;;;;;;6997708;28;20794;-85
2022/08/03 11:04:18;;;;;;;4.37;1.90;;;27.40;81.30;;;;;;6997715;28;20438;-84
2022/08/03 11:07:41;;;;;;;4.07;1.88;;;27.50;81.00;;;;;;6999579;28;20940;-86
2022/08/03 11:11:27;;;;;;;3.87;1.70;;;27.60;80.40;;;;;;7005141;28;20480;-86
2022/08/03 11:14:50;;;;;;;4.63;2.10;;;27.60;79.70;;;;;;7007452;28;20545;-87
2022/08/03 11:18:15;;;;;;;3.43;1.80;;;27.60;81.20;;;;;;7005352;28;20507;-88
2022/08/03 11:21:58;;;;;;;3.78;1.80;;;27.70;80.00;;;;;;7006238;28;20898;-87
2022/08/03 11:25:21;;;;;;;4.15;1.80;;;27.70;79.10;;;;;;7005348;28;20537;-87
2022/08/03 11:28:46;;;;;;;4.88;2.47;;;27.70;77.30;;;;;;7005157;28;20435;-87
2022/08/03 11:32:09;;;;;;;4.40;1.90;;;27.80;79.10;;;;;;7014780;28;20430;-86
2022/08/03 11:35:34;;;;;;;3.15;1.80;;;28.10;79.80;;;;;;7015277;28;20446;-86
2022/08/03 11:39:16;;;;;;;4.20;1.80;;;28.20;77.80;;;;;;7012704;28;20525;-86
2022/08/03 11:42:46;;;;;;;4.70;1.83;;;28.30;76.20;;;;;;7009604;28;20431;-86
2022/08/03 11:46:16;;;;;;;3.40;1.80;;;28.40;75.80;;;;;;7001454;28;20427;-86
2022/08/03 11:49:39;;;;;;;3.13;1.70;;;28.50;74.50;;;;;;7003390;28;20424;-86
2022/08/03 11:53:01;;;;;;;3.22;1.70;;;28.40;74.50;;;;;;7001231;28;20441;-86
2022/08/03 11:56:23;;;;;;;3.55;1.70;;;28.70;74.70;;;;;;7002051;28;20439;-84
2022/08/03 11:59:46;;;;;;;3.95;1.70;;;28.70;74.40;;;;;;6999502;28;20530;-86
2022/08/03 12:03:13;;;;;;;4.72;1.80;;;29.00;73.60;;;;;;7000991;28;20427;-86
2022/08/03 12:06:53;;;;;;;3.80;1.80;;;28.90;72.00;;;;;;7000245;28;20435;-87
2022/08/03 12:10:15;;;;;;;3.03;1.77;;;28.90;71.20;;;;;;7001443;28;20455;-87
2022/08/03 12:13:43;;;;;;;3.60;1.70;;;29.00;72.60;;;;;;7009459;28;20431;-88
2022/08/03 12:17:06;;;;;;;3.85;1.92;;;29.20;71.80;;;;;;7003446;28;20483;-86
2022/08/03 12:20:32;;;;;;;3.93;1.73;;;29.40;70.00;;;;;;7001544;28;20436;-85
2022/08/03 12:23:58;;;;;;;4.87;2.27;;;29.60;69.50;;;;;;7004595;28;20617;-86
2022/08/03 12:27:25;;;;;;;3.78;1.70;;;29.60;69.70;;;;;;7005585;28;20439;-86
2022/08/03 12:30:50;;;;;;;5.13;1.83;;;29.60;67.20;;;;;;7004747;28;20749;-86
2022/08/03 12:34:12;;;;;;;3.78;1.80;;;29.70;68.70;;;;;;7001362;28;20428;-86
2022/08/03 12:37:36;;;;;;;5.13;1.80;;;30.00;68.70;;;;;;7002031;28;20439;-86
2022/08/03 12:41:02;;;;;;;5.78;1.80;;;30.10;68.30;;;;;;7003329;28;20438;-87
2022/08/03 12:44:32;;;;;;;5.10;1.70;;;30.20;66.90;;;;;;7003205;28;20446;-86
2022/08/03 12:47:58;;;;;;;4.80;1.70;;;30.10;66.30;;;;;;7003069;28;20939;-87
2022/08/03 12:51:20;;;;;;;3.63;1.55;;;30.10;65.30;;;;;;7002152;28;20423;-88
2022/08/03 12:54:55;;;;;;;3.60;1.70;;;30.20;65.80;;;;;;7003539;28;20436;-85
2022/08/03 12:58:32;;;;;;;4.03;1.80;;;30.40;65.50;;;;;;7004144;28;20439;-85
2022/08/03 13:01:55;;;;;;;3.70;1.70;;;30.50;64.50;;;;;;7004409;28;20431;-85
2022/08/03 13:05:17;;;;;;;4.70;1.50;;;30.70;65.10;;;;;;7005840;28;20435;-87
2022/08/03 13:08:40;;;;;;;2.70;1.50;;;30.80;64.00;;;;;;7002009;28;20430;-86
2022/08/03 13:12:09;;;;;;;3.60;1.70;;;30.80;63.70;;;;;;7000985;28;20427;-86
2022/08/03 13:15:31;;;;;;;4.93;1.85;;;30.90;62.10;;;;;;6982397;28;20426;-87
2022/08/03 13:18:55;;;;;;;4.00;1.70;;;31.00;62.80;;;;;;7001945;28;20434;-87
2022/08/03 13:22:19;;;;;;;3.97;1.60;;;31.00;61.70;;;;;;6998716;28;20424;-86
2022/08/03 13:25:41;;;;;;;3.67;1.60;;;31.10;62.00;;;;;;6999345;28;20427;-85
2022/08/03 13:29:05;;;;;;;5.60;1.75;;;31.20;62.00;;;;;;6998828;28;20435;-85
2022/08/03 13:32:27;;;;;;;3.53;1.70;;;31.60;62.40;;;;;;6998943;28;20435;-85
2022/08/03 13:35:49;;;;;;;4.32;1.60;;;31.60;61.30;;;;;;6996255;28;21257;-87
2022/08/03 13:39:11;;;;;;;4.75;2.75;;;31.50;59.90;;;;;;6997650;28;20913;-86
2022/08/03 13:42:35;;;;;;;3.58;2.05;;;31.50;60.70;;;;;;6978590;28;20931;-85
2022/08/03 13:45:59;;;;;;;3.30;1.60;;;31.80;61.10;;;;;;6998178;28;20900;-84
2022/08/03 13:49:21;;;;;;;3.70;1.83;;;32.10;60.80;;;;;;6996958;28;20437;-87
2022/08/03 13:52:45;;;;;;;3.65;1.67;;;32.20;60.00;;;;;;6994405;28;20431;-86
2022/08/03 13:56:07;;;;;;;3.78;1.67;;;32.30;58.30;;;;;;6989208;28;20434;-86
2022/08/03 13:59:29;;;;;;;3.53;1.75;;;32.30;57.20;;;;;;6996546;28;20431;-86
2022/08/03 14:02:53;;;;;;;6.00;3.05;;;32.30;57.60;;;;;;6993091;28;20489;-83
2022/08/03 14:06:15;;;;;;;3.28;1.67;;;32.50;58.10;;;;;;6992028;28;20909;-85
2022/08/03 14:09:37;;;;;;;4.20;1.73;;;32.70;58.40;;;;;;6999141;28;20446;-84
2022/08/03 14:13:00;;;;;;;4.53;1.70;;;32.90;58.10;;;;;;6999652;28;20435;-84
2022/08/03 14:16:22;;;;;;;3.83;1.70;;;32.90;57.10;;;;;;6996908;28;20501;-84
2022/08/03 14:19:45;;;;;;;3.92;1.60;;;33.00;57.20;;;;;;6995557;28;20447;-82
2022/08/03 14:23:08;;;;;;;2.97;1.42;;;33.00;55.50;;;;;;6994552;28;20952;-84
2022/08/03 14:26:30;;;;;;;3.90;1.70;;;33.20;56.50;;;;;;6994820;28;20484;-82
2022/08/03 14:29:52;;;;;;;3.17;1.60;;;33.40;55.40;;;;;;6994261;28;20435;-84
2022/08/03 14:33:15;;;;;;;8.93;4.83;;;33.20;54.30;;;;;;6974031;28;20454;-85
2022/08/03 14:36:38;;;;;;;3.80;1.70;;;33.10;55.00;;;;;;6992032;28;20823;-83
2022/08/03 14:40:01;;;;;;;4.05;1.70;;;33.40;55.50;;;;;;6993940;28;20925;-85
2022/08/03 14:43:23;;;;;;;4.97;1.55;;;33.50;55.90;;;;;;6993827;28;20474;-83
2022/08/03 14:46:45;;;;;;;3.50;1.52;;;33.50;53.40;;;;;;6994244;28;20443;-82
2022/08/03 14:50:09;;;;;;;4.27;1.60;;;33.50;53.20;;;;;;7002975;28;20439;-85
2022/08/03 14:53:34;;;;;;;3.80;1.73;;;33.40;52.10;;;;;;6987072;28;20957;-79
2022/08/03 14:56:56;;;;;;;3.40;1.40;;;33.30;53.10;;;;;;6968184;28;20432;-79
2022/08/03 15:00:18;;;;;;;4.38;1.73;;;33.40;52.50;;;;;;6992519;28;20483;-80
2022/08/03 15:03:45;;;;;;;4.70;1.77;;;33.40;53.20;;;;;;6997954;28;20434;-80
2022/08/03 15:07:07;;;;;;;3.22;1.60;;;33.60;53.20;;;;;;6990053;28;20447;-80
2022/08/03 15:10:31;;;;;;;3.08;1.55;;;33.70;52.80;;;;;;6988938;28;20443;-79
2022/08/03 15:13:53;;;;;;;4.07;1.60;;;33.90;52.50;;;;;;6989944;28;20481;-77
2022/08/03 15:17:15;;;;;;;3.22;1.50;;;33.70;51.00;;;;;;6986849;28;20789;-79
2022/08/03 15:20:37;;;;;;;3.03;1.70;;;33.60;51.60;;;;;;6985302;28;20467;-81
2022/08/03 15:23:59;;;;;;;3.30;1.42;;;33.60;51.70;;;;;;6989124;28;20449;-82
2022/08/03 15:27:23;;;;;;;3.83;1.55;;;33.80;51.90;;;;;;6988889;28;20848;-82
2022/08/03 15:30:45;;;;;;;5.17;2.60;;;33.80;51.00;;;;;;6989100;28;20463;-82
2022/08/03 15:34:07;;;;;;;6.30;3.72;;;34.00;51.60;;;;;;6988608;28;20446;-80
2022/08/03 15:37:29;;;;;;;5.97;3.50;;;34.10;51.60;;;;;;6989343;28;20853;-80
2022/08/03 15:40:53;;;;;;;4.78;3.08;;;34.00;50.70;;;;;;6982337;28;20443;-79
2022/08/03 15:44:20;;;;;;;4.45;1.90;;;34.10;51.40;;;;;;6987275;28;20920;-82
2022/08/03 15:47:42;;;;;;;3.88;1.70;;;34.30;51.50;;;;;;6982668;28;20431;-81
2022/08/03 15:51:05;;;;;;;3.73;1.60;;;34.30;51.50;;;;;;6986147;28;20478;-81
2022/08/03 15:54:27;;;;;;;3.20;1.50;;;34.50;49.90;;;;;;6988920;28;20942;-80
2022/08/03 15:57:49;;;;;;;3.25;1.50;;;34.50;50.10;;;;;;6991374;28;20439;-82
2022/08/03 16:01:14;;;;;;;3.90;1.50;;;34.40;49.80;;;;;;6993077;28;20457;-80
2022/08/03 16:04:36;;;;;;;3.90;1.60;;;34.60;50.90;;;;;;6992736;28;20474;-80
2022/08/03 16:07:58;;;;;;;4.03;1.60;;;34.60;51.00;;;;;;6993722;28;20442;-81
2022/08/03 16:11:23;;;;;;;4.00;1.67;;;34.80;50.60;;;;;;6992127;28;20438;-81
2022/08/03 16:14:45;;;;;;;3.72;1.60;;;34.80;50.00;;;;;;6992807;28;20444;-81
2022/08/03 16:18:09;;;;;;;4.10;1.60;;;34.80;49.60;;;;;;6991656;28;20488;-80
2022/08/03 16:21:31;;;;;;;2.85;1.48;;;35.00;50.00;;;;;;6992519;28;20436;-80
2022/08/03 16:24:54;;;;;;;3.42;1.55;;;35.10;48.80;;;;;;6993805;28;20431;-80
2022/08/03 16:28:16;;;;;;;2.83;1.50;;;35.40;49.20;;;;;;6992535;28;20473;-82
2022/08/03 16:31:38;;;;;;;3.63;1.67;;;35.80;48.40;;;;;;6992273;28;20522;-81
2022/08/03 16:35:02;;;;;;;3.63;1.50;;;35.60;48.20;;;;;;6993144;28;20917;-82
2022/08/03 16:38:24;;;;;;;3.88;1.60;;;35.70;49.10;;;;;;6991652;28;20471;-81
2022/08/03 16:41:46;;;;;;;3.05;1.60;;;35.50;49.20;;;;;;6993093;28;20467;-85
2022/08/03 16:45:10;;;;;;;3.50;1.70;;;35.40;49.20;;;;;;6990884;28;20443;-81
2022/08/03 16:48:32;;;;;;;4.47;1.58;;;35.50;48.50;;;;;;6992896;28;20456;-83
2022/08/03 16:51:55;;;;;;;3.67;1.50;;;35.50;48.70;;;;;;6993658;28;20446;-82
2022/08/03 16:55:17;;;;;;;3.15;1.50;;;35.50;49.00;;;;;;6994061;28;20456;-83
2022/08/03 16:58:39;;;;;;;3.30;1.50;;;35.50;48.40;;;;;;6992609;28;20462;-82
2022/08/03 17:02:04;;;;;;;2.78;1.40;;;35.50;49.60;;;;;;6992958;28;20481;-83
2022/08/03 17:05:27;;;;;;;4.30;1.40;;;35.40;48.80;;;;;;6994247;28;20435;-83
2022/08/03 17:08:51;;;;;;;4.30;1.50;;;35.40;49.20;;;;;;7019185;28;20411;-82
2022/08/03 17:12:14;;;;;;;3.42;1.60;;;35.40;48.60;;;;;;7023676;28;20442;-83
2022/08/03 17:15:36;;;;;;;3.33;1.50;;;35.40;49.20;;;;;;7023803;28;20428;-83
2022/08/03 17:19:04;;;;;;;2.85;1.42;;;35.40;48.90;;;;;;7019374;28;20450;-80
2022/08/03 17:22:32;;;;;;;3.22;1.50;;;35.40;50.40;;;;;;7018435;28;20432;-79
2022/08/03 17:25:57;;;;;;;3.87;1.90;;;35.40;51.00;;;;;;7016346;28;20450;-78
2022/08/03 17:29:22;;;;;;;3.58;1.60;;;35.40;50.00;;;;;;7023290;28;20431;-77
2022/08/03 17:32:49;;;;;;;4.32;1.92;;;35.40;49.50;;;;;;7018522;28;20427;-76
2022/08/03 17:36:11;;;;;;;6.25;2.60;;;35.40;49.70;;;;;;6999847;28;20533;-78
2022/08/03 17:39:33;;;;;;;3.47;1.80;;;35.50;50.00;;;;;;6992041;28;20471;-78
2022/08/03 17:42:57;;;;;;;3.63;1.50;;;35.40;50.00;;;;;;6993078;28;20522;-78
2022/08/03 17:46:21;;;;;;;3.83;1.80;;;35.50;49.80;;;;;;6989708;28;20520;-78
2022/08/03 17:49:43;;;;;;;4.03;1.60;;;35.40;50.30;;;;;;7009185;28;20439;-76
2022/08/03 17:53:09;;;;;;;3.40;1.80;;;35.40;50.00;;;;;;6995502;28;20424;-77
2022/08/03 17:56:44;;;;;;;2.80;1.60;;;35.40;50.50;;;;;;7021858;28;20839;-77
2022/08/03 18:03:57;;;;;;;2.90;1.50;;;35.40;50.80;;;;;;7005345;28;20494;-78